Terminal Aerodrome Forecast
Issued by NWS

Home | Current Version | Previous Version | Text Only | Print | Product List | Glossary Off
Versions: 1 2 3 4 5 6 7 8 9 10 11 12 13 14

000
FTUS45 KGGW 220528
TAFGDV
TAF
KGDV 220528Z 2206/2306 26007KT 4SM BR SCT005
      TEMPO 2206/2208 1SM BR OVC003
     FM220800 26007KT 2SM BR OVC004
      TEMPO 2208/2212 1/4SM FZFG VV002
     FM221200 25007KT 1SM BR BKN005
     FM221600 25007KT P6SM SCT015
     FM230500 23004KT P6SM SCT010=

USA.gov is the U.S. government's official web portal to all federal, state and local government web resources and services.